sensor_id;sensor_type;location;lat;lon;timestamp;P1;durP1;ratioP1;P2;durP2;ratioP2
16472;SDS011;8347;52.486;13.432;2024-01-16T00:02:13;11.05;;;2.17;;
16472;SDS011;8347;52.486;13.432;2024-01-16T00:04:59;3.63;;;1.83;;
16472;SDS011;8347;52.486;13.432;2024-01-16T00:07:46;4.18;;;1.20;;
16472;SDS011;8347;52.486;13.432;2024-01-16T00:10:33;7.00;;;1.75;;
16472;SDS011;8347;52.486;13.432;2024-01-16T00:13:19;3.25;;;1.45;;
16472;SDS011;8347;52.486;13.432;2024-01-16T00:16:05;7.00;;;2.40;;
16472;SDS011;8347;52.486;13.432;2024-01-16T00:18:53;4.85;;;2.00;;
16472;SDS011;8347;52.486;13.432;2024-01-16T00:21:43;6.10;;;2.25;;
16472;SDS011;8347;52.486;13.432;2024-01-16T00:24:33;3.60;;;1.63;;
16472;SDS011;8347;52.486;13.432;2024-01-16T00:27:20;7.25;;;2.13;;
16472;SDS011;8347;52.486;13.432;2024-01-16T00:30:07;3.42;;;2.28;;
16472;SDS011;8347;52.486;13.432;2024-01-16T00:32:55;5.05;;;2.30;;
16472;SDS011;8347;52.486;13.432;2024-01-16T00:35:44;4.13;;;1.80;;
16472;SDS011;8347;52.486;13.432;2024-01-16T00:38:33;3.40;;;1.83;;
16472;SDS011;8347;52.486;13.432;2024-01-16T00:41:20;2.55;;;1.80;;
16472;SDS011;8347;52.486;13.432;2024-01-16T00:44:07;4.78;;;1.75;;
16472;SDS011;8347;52.486;13.432;2024-01-16T00:46:54;3.17;;;1.52;;
16472;SDS011;8347;52.486;13.432;2024-01-16T00:49:40;8.48;;;2.65;;
16472;SDS011;8347;52.486;13.432;2024-01-16T00:52:27;3.30;;;2.13;;
16472;SDS011;8347;52.486;13.432;2024-01-16T00:55:14;5.07;;;2.15;;
16472;SDS011;8347;52.486;13.432;2024-01-16T00:58:00;3.90;;;2.10;;
16472;SDS011;8347;52.486;13.432;2024-01-16T01:00:46;2.80;;;2.10;;
16472;SDS011;8347;52.486;13.432;2024-01-16T01:03:33;3.83;;;1.52;;
16472;SDS011;8347;52.486;13.432;2024-01-16T01:06:19;2.38;;;1.60;;
16472;SDS011;8347;52.486;13.432;2024-01-16T01:09:06;5.05;;;1.88;;
16472;SDS011;8347;52.486;13.432;2024-01-16T01:11:53;3.45;;;1.73;;
16472;SDS011;8347;52.486;13.432;2024-01-16T01:14:39;4.47;;;1.83;;
16472;SDS011;8347;52.486;13.432;2024-01-16T01:17:26;5.47;;;1.75;;
16472;SDS011;8347;52.486;13.432;2024-01-16T01:20:13;2.88;;;1.50;;
16472;SDS011;8347;52.486;13.432;2024-01-16T01:22:59;3.00;;;1.38;;
16472;SDS011;8347;52.486;13.432;2024-01-16T01:25:46;3.55;;;1.50;;
16472;SDS011;8347;52.486;13.432;2024-01-16T01:28:32;1.60;;;0.88;;
16472;SDS011;8347;52.486;13.432;2024-01-16T01:31:18;1.38;;;0.90;;
16472;SDS011;8347;52.486;13.432;2024-01-16T01:34:05;2.67;;;1.17;;
16472;SDS011;8347;52.486;13.432;2024-01-16T01:36:51;2.33;;;1.20;;
16472;SDS011;8347;52.486;13.432;2024-01-16T01:39:37;1.80;;;1.30;;
16472;SDS011;8347;52.486;13.432;2024-01-16T01:42:24;2.40;;;1.23;;
16472;SDS011;8347;52.486;13.432;2024-01-16T01:45:11;2.70;;;1.20;;
16472;SDS011;8347;52.486;13.432;2024-01-16T01:47:58;2.55;;;0.75;;
16472;SDS011;8347;52.486;13.432;2024-01-16T01:50:44;2.53;;;1.10;;
16472;SDS011;8347;52.486;13.432;2024-01-16T01:53:31;1.80;;;1.20;;
16472;SDS011;8347;52.486;13.432;2024-01-16T01:56:18;4.55;;;1.33;;
16472;SDS011;8347;52.486;13.432;2024-01-16T01:59:06;4.78;;;1.35;;
16472;SDS011;8347;52.486;13.432;2024-01-16T02:01:53;3.15;;;1.42;;
16472;SDS011;8347;52.486;13.432;2024-01-16T02:04:40;2.33;;;1.55;;
16472;SDS011;8347;52.486;13.432;2024-01-16T02:07:27;1.70;;;1.33;;
16472;SDS011;8347;52.486;13.432;2024-01-16T02:10:14;4.60;;;1.38;;
16472;SDS011;8347;52.486;13.432;2024-01-16T02:13:01;6.55;;;1.38;;
16472;SDS011;8347;52.486;13.432;2024-01-16T02:15:47;1.25;;;1.13;;
16472;SDS011;8347;52.486;13.432;2024-01-16T02:18:33;4.65;;;1.20;;
16472;SDS011;8347;52.486;13.432;2024-01-16T02:21:20;3.42;;;1.38;;
16472;SDS011;8347;52.486;13.432;2024-01-16T02:24:07;2.67;;;1.35;;
16472;SDS011;8347;52.486;13.432;2024-01-16T02:26:54;3.53;;;1.58;;
16472;SDS011;8347;52.486;13.432;2024-01-16T02:29:41;4.28;;;1.60;;
16472;SDS011;8347;52.486;13.432;2024-01-16T02:32:28;4.43;;;2.22;;
16472;SDS011;8347;52.486;13.432;2024-01-16T02:35:15;4.68;;;1.52;;
16472;SDS011;8347;52.486;13.432;2024-01-16T02:38:02;2.65;;;1.25;;
16472;SDS011;8347;52.486;13.432;2024-01-16T02:40:50;3.40;;;1.20;;
16472;SDS011;8347;52.486;13.432;2024-01-16T02:43:37;3.65;;;1.25;;
16472;SDS011;8347;52.486;13.432;2024-01-16T02:46:23;2.72;;;1.50;;
16472;SDS011;8347;52.486;13.432;2024-01-16T02:49:10;2.78;;;1.45;;
16472;SDS011;8347;52.486;13.432;2024-01-16T02:51:56;3.80;;;1.38;;
16472;SDS011;8347;52.486;13.432;2024-01-16T02:54:42;1.65;;;1.55;;
16472;SDS011;8347;52.486;13.432;2024-01-16T02:57:29;3.33;;;1.45;;
16472;SDS011;8347;52.486;13.432;2024-01-16T03:00:15;1.95;;;1.30;;
16472;SDS011;8347;52.486;13.432;2024-01-16T03:03:03;3.65;;;1.42;;
16472;SDS011;8347;52.486;13.432;2024-01-16T03:05:49;3.72;;;1.60;;
16472;SDS011;8347;52.486;13.432;2024-01-16T03:08:36;5.40;;;1.63;;
16472;SDS011;8347;52.486;13.432;2024-01-16T03:11:22;3.47;;;1.60;;
16472;SDS011;8347;52.486;13.432;2024-01-16T03:14:09;5.20;;;2.00;;
16472;SDS011;8347;52.486;13.432;2024-01-16T03:16:55;6.25;;;2.40;;
16472;SDS011;8347;52.486;13.432;2024-01-16T03:19:41;3.88;;;2.25;;
16472;SDS011;8347;52.486;13.432;2024-01-16T03:22:29;3.17;;;1.75;;
16472;SDS011;8347;52.486;13.432;2024-01-16T03:25:16;2.78;;;1.73;;
16472;SDS011;8347;52.486;13.432;2024-01-16T03:28:02;7.28;;;2.47;;
16472;SDS011;8347;52.486;13.432;2024-01-16T03:30:50;4.30;;;2.25;;
16472;SDS011;8347;52.486;13.432;2024-01-16T03:33:36;4.43;;;1.90;;
16472;SDS011;8347;52.486;13.432;2024-01-16T03:36:27;3.65;;;2.45;;
16472;SDS011;8347;52.486;13.432;2024-01-16T03:39:13;4.25;;;1.80;;
16472;SDS011;8347;52.486;13.432;2024-01-16T03:42:00;4.82;;;2.00;;
16472;SDS011;8347;52.486;13.432;2024-01-16T03:44:47;2.78;;;1.90;;
16472;SDS011;8347;52.486;13.432;2024-01-16T03:47:34;4.35;;;2.72;;
16472;SDS011;8347;52.486;13.432;2024-01-16T03:50:20;5.15;;;2.30;;
16472;SDS011;8347;52.486;13.432;2024-01-16T03:53:07;4.05;;;2.38;;
16472;SDS011;8347;52.486;13.432;2024-01-16T03:55:54;6.57;;;2.35;;
16472;SDS011;8347;52.486;13.432;2024-01-16T03:58:41;5.13;;;2.85;;
16472;SDS011;8347;52.486;13.432;2024-01-16T04:01:33;4.15;;;2.35;;
16472;SDS011;8347;52.486;13.432;2024-01-16T04:04:22;5.22;;;1.98;;
16472;SDS011;8347;52.486;13.432;2024-01-16T04:07:08;5.03;;;2.42;;
16472;SDS011;8347;52.486;13.432;2024-01-16T04:09:55;5.38;;;2.60;;
16472;SDS011;8347;52.486;13.432;2024-01-16T04:12:42;4.28;;;2.13;;
16472;SDS011;8347;52.486;13.432;2024-01-16T04:15:28;6.65;;;3.25;;
16472;SDS011;8347;52.486;13.432;2024-01-16T04:18:14;6.07;;;2.38;;
16472;SDS011;8347;52.486;13.432;2024-01-16T04:21:01;6.57;;;3.15;;
16472;SDS011;8347;52.486;13.432;2024-01-16T04:23:47;6.38;;;2.70;;
16472;SDS011;8347;52.486;13.432;2024-01-16T04:26:35;5.00;;;2.42;;
16472;SDS011;8347;52.486;13.432;2024-01-16T04:29:23;5.72;;;2.70;;
16472;SDS011;8347;52.486;13.432;2024-01-16T04:32:09;5.93;;;2.65;;
16472;SDS011;8347;52.486;13.432;2024-01-16T04:34:56;4.88;;;2.85;;
16472;SDS011;8347;52.486;13.432;2024-01-16T04:37:42;5.40;;;2.85;;
16472;SDS011;8347;52.486;13.432;2024-01-16T04:40:28;5.40;;;2.67;;
16472;SDS011;8347;52.486;13.432;2024-01-16T04:43:15;4.45;;;3.17;;
16472;SDS011;8347;52.486;13.432;2024-01-16T04:46:01;4.85;;;2.67;;
16472;SDS011;8347;52.486;13.432;2024-01-16T04:48:48;4.93;;;3.50;;
16472;SDS011;8347;52.486;13.432;2024-01-16T04:51:38;5.63;;;3.03;;
16472;SDS011;8347;52.486;13.432;2024-01-16T04:54:25;5.55;;;3.38;;
16472;SDS011;8347;52.486;13.432;2024-01-16T04:57:11;9.57;;;3.80;;
16472;SDS011;8347;52.486;13.432;2024-01-16T04:59:58;8.32;;;3.58;;
16472;SDS011;8347;52.486;13.432;2024-01-16T05:02:44;8.00;;;3.60;;
16472;SDS011;8347;52.486;13.432;2024-01-16T05:05:32;7.30;;;3.40;;
16472;SDS011;8347;52.486;13.432;2024-01-16T05:08:19;6.00;;;3.88;;
16472;SDS011;8347;52.486;13.432;2024-01-16T05:11:05;8.20;;;4.53;;
16472;SDS011;8347;52.486;13.432;2024-01-16T05:13:51;12.00;;;5.95;;
16472;SDS011;8347;52.486;13.432;2024-01-16T05:16:43;7.85;;;5.18;;
16472;SDS011;8347;52.486;13.432;2024-01-16T05:19:30;6.78;;;4.38;;
16472;SDS011;8347;52.486;13.432;2024-01-16T05:22:17;10.75;;;4.25;;
16472;SDS011;8347;52.486;13.432;2024-01-16T05:25:03;11.65;;;4.75;;
16472;SDS011;8347;52.486;13.432;2024-01-16T05:27:50;7.40;;;4.38;;
16472;SDS011;8347;52.486;13.432;2024-01-16T05:30:36;5.75;;;3.78;;
16472;SDS011;8347;52.486;13.432;2024-01-16T05:33:23;8.75;;;4.47;;
16472;SDS011;8347;52.486;13.432;2024-01-16T05:36:09;9.80;;;4.50;;
16472;SDS011;8347;52.486;13.432;2024-01-16T05:38:56;5.45;;;3.78;;
16472;SDS011;8347;52.486;13.432;2024-01-16T05:41:42;7.72;;;3.60;;
16472;SDS011;8347;52.486;13.432;2024-01-16T05:44:29;9.30;;;3.70;;
16472;SDS011;8347;52.486;13.432;2024-01-16T05:47:16;7.95;;;3.83;;
16472;SDS011;8347;52.486;13.432;2024-01-16T05:50:02;5.43;;;3.50;;
16472;SDS011;8347;52.486;13.432;2024-01-16T05:52:49;10.20;;;3.65;;
16472;SDS011;8347;52.486;13.432;2024-01-16T05:55:36;9.68;;;4.13;;
16472;SDS011;8347;52.486;13.432;2024-01-16T05:58:23;6.00;;;3.78;;
16472;SDS011;8347;52.486;13.432;2024-01-16T06:01:09;5.70;;;3.30;;
16472;SDS011;8347;52.486;13.432;2024-01-16T06:03:59;4.95;;;3.42;;
16472;SDS011;8347;52.486;13.432;2024-01-16T06:06:46;5.65;;;3.92;;
16472;SDS011;8347;52.486;13.432;2024-01-16T06:09:33;6.53;;;4.07;;
16472;SDS011;8347;52.486;13.432;2024-01-16T06:12:25;7.25;;;4.47;;
16472;SDS011;8347;52.486;13.432;2024-01-16T06:15:11;6.60;;;4.97;;
16472;SDS011;8347;52.486;13.432;2024-01-16T06:17:58;8.07;;;5.18;;
16472;SDS011;8347;52.486;13.432;2024-01-16T06:20:45;10.73;;;6.38;;
16472;SDS011;8347;52.486;13.432;2024-01-16T06:23:31;9.30;;;5.82;;
16472;SDS011;8347;52.486;13.432;2024-01-16T06:26:18;10.20;;;5.85;;
16472;SDS011;8347;52.486;13.432;2024-01-16T06:29:04;7.97;;;5.40;;
16472;SDS011;8347;52.486;13.432;2024-01-16T06:31:51;10.45;;;6.85;;
16472;SDS011;8347;52.486;13.432;2024-01-16T06:34:37;9.38;;;6.13;;
16472;SDS011;8347;52.486;13.432;2024-01-16T06:37:24;12.77;;;6.68;;
16472;SDS011;8347;52.486;13.432;2024-01-16T06:40:11;8.80;;;5.78;;
16472;SDS011;8347;52.486;13.432;2024-01-16T06:42:57;10.80;;;5.75;;
16472;SDS011;8347;52.486;13.432;2024-01-16T06:45:44;13.88;;;8.23;;
16472;SDS011;8347;52.486;13.432;2024-01-16T06:48:30;11.95;;;6.30;;
16472;SDS011;8347;52.486;13.432;2024-01-16T06:51:17;11.43;;;5.97;;
16472;SDS011;8347;52.486;13.432;2024-01-16T06:54:04;9.18;;;5.93;;
16472;SDS011;8347;52.486;13.432;2024-01-16T06:56:50;11.30;;;6.93;;
16472;SDS011;8347;52.486;13.432;2024-01-16T06:59:37;13.82;;;7.13;;
16472;SDS011;8347;52.486;13.432;2024-01-16T07:02:24;12.63;;;6.00;;
16472;SDS011;8347;52.486;13.432;2024-01-16T07:05:12;9.85;;;5.65;;
16472;SDS011;8347;52.486;13.432;2024-01-16T07:07:58;10.02;;;6.18;;
16472;SDS011;8347;52.486;13.432;2024-01-16T07:10:45;10.50;;;6.32;;
16472;SDS011;8347;52.486;13.432;2024-01-16T07:13:32;14.90;;;5.95;;
16472;SDS011;8347;52.486;13.432;2024-01-16T07:16:19;10.55;;;5.47;;
16472;SDS011;8347;52.486;13.432;2024-01-16T07:19:05;16.08;;;6.25;;
16472;SDS011;8347;52.486;13.432;2024-01-16T07:21:52;14.50;;;6.95;;
16472;SDS011;8347;52.486;13.432;2024-01-16T07:24:38;10.20;;;6.68;;
16472;SDS011;8347;52.486;13.432;2024-01-16T07:27:25;9.55;;;5.70;;
16472;SDS011;8347;52.486;13.432;2024-01-16T07:30:11;9.50;;;4.95;;
16472;SDS011;8347;52.486;13.432;2024-01-16T07:32:58;7.78;;;5.88;;
16472;SDS011;8347;52.486;13.432;2024-01-16T07:35:45;8.27;;;5.28;;
16472;SDS011;8347;52.486;13.432;2024-01-16T07:38:33;7.25;;;4.88;;
16472;SDS011;8347;52.486;13.432;2024-01-16T07:41:21;6.07;;;4.63;;
16472;SDS011;8347;52.486;13.432;2024-01-16T07:44:08;7.10;;;4.85;;
16472;SDS011;8347;52.486;13.432;2024-01-16T07:46:54;8.57;;;5.55;;
16472;SDS011;8347;52.486;13.432;2024-01-16T07:49:41;9.07;;;5.03;;
16472;SDS011;8347;52.486;13.432;2024-01-16T07:52:29;8.82;;;5.20;;
16472;SDS011;8347;52.486;13.432;2024-01-16T07:55:15;6.05;;;4.55;;
16472;SDS011;8347;52.486;13.432;2024-01-16T07:58:04;7.55;;;4.40;;
16472;SDS011;8347;52.486;13.432;2024-01-16T08:00:50;7.70;;;4.47;;
16472;SDS011;8347;52.486;13.432;2024-01-16T08:03:37;6.75;;;4.53;;
16472;SDS011;8347;52.486;13.432;2024-01-16T08:06:24;14.77;;;5.00;;
16472;SDS011;8347;52.486;13.432;2024-01-16T08:09:11;9.00;;;4.93;;
16472;SDS011;8347;52.486;13.432;2024-01-16T08:11:58;10.30;;;4.93;;
16472;SDS011;8347;52.486;13.432;2024-01-16T08:14:48;7.55;;;4.65;;
16472;SDS011;8347;52.486;13.432;2024-01-16T08:17:35;13.02;;;4.75;;
16472;SDS011;8347;52.486;13.432;2024-01-16T08:20:21;7.50;;;5.30;;
16472;SDS011;8347;52.486;13.432;2024-01-16T08:23:08;10.73;;;4.43;;
16472;SDS011;8347;52.486;13.432;2024-01-16T08:25:54;6.93;;;4.35;;
16472;SDS011;8347;52.486;13.432;2024-01-16T08:28:40;10.80;;;5.78;;
16472;SDS011;8347;52.486;13.432;2024-01-16T08:31:27;16.58;;;8.13;;
16472;SDS011;8347;52.486;13.432;2024-01-16T08:34:16;8.43;;;5.93;;
16472;SDS011;8347;52.486;13.432;2024-01-16T08:37:04;7.50;;;4.95;;
16472;SDS011;8347;52.486;13.432;2024-01-16T08:39:50;10.73;;;5.35;;
16472;SDS011;8347;52.486;13.432;2024-01-16T08:42:37;13.85;;;6.78;;
16472;SDS011;8347;52.486;13.432;2024-01-16T08:45:24;12.65;;;6.63;;
16472;SDS011;8347;52.486;13.432;2024-01-16T08:48:14;10.45;;;5.45;;
16472;SDS011;8347;52.486;13.432;2024-01-16T08:51:00;11.70;;;7.45;;
16472;SDS011;8347;52.486;13.432;2024-01-16T08:53:47;9.25;;;4.63;;
16472;SDS011;8347;52.486;13.432;2024-01-16T08:56:33;8.38;;;5.03;;
16472;SDS011;8347;52.486;13.432;2024-01-16T08:59:20;9.15;;;5.53;;
16472;SDS011;8347;52.486;13.432;2024-01-16T09:02:07;9.77;;;5.13;;
16472;SDS011;8347;52.486;13.432;2024-01-16T09:04:54;8.05;;;4.82;;
16472;SDS011;8347;52.486;13.432;2024-01-16T09:07:40;9.18;;;6.13;;
16472;SDS011;8347;52.486;13.432;2024-01-16T09:10:27;9.07;;;5.50;;
16472;SDS011;8347;52.486;13.432;2024-01-16T09:13:14;9.00;;;5.85;;
16472;SDS011;8347;52.486;13.432;2024-01-16T09:16:00;10.20;;;7.03;;
16472;SDS011;8347;52.486;13.432;2024-01-16T09:18:47;11.55;;;7.35;;
16472;SDS011;8347;52.486;13.432;2024-01-16T09:21:33;11.00;;;6.80;;
16472;SDS011;8347;52.486;13.432;2024-01-16T09:24:19;14.02;;;6.88;;
16472;SDS011;8347;52.486;13.432;2024-01-16T09:27:06;11.48;;;5.90;;
16472;SDS011;8347;52.486;13.432;2024-01-16T09:29:55;9.45;;;5.85;;
16472;SDS011;8347;52.486;13.432;2024-01-16T09:32:41;9.43;;;6.13;;
16472;SDS011;8347;52.486;13.432;2024-01-16T09:35:28;12.48;;;6.50;;
16472;SDS011;8347;52.486;13.432;2024-01-16T09:38:15;10.18;;;6.07;;
16472;SDS011;8347;52.486;13.432;2024-01-16T09:41:02;9.68;;;5.85;;
16472;SDS011;8347;52.486;13.432;2024-01-16T09:43:48;12.35;;;5.68;;
16472;SDS011;8347;52.486;13.432;2024-01-16T09:46:37;12.80;;;6.90;;
16472;SDS011;8347;52.486;13.432;2024-01-16T09:49:25;10.45;;;6.50;;
16472;SDS011;8347;52.486;13.432;2024-01-16T09:52:12;15.57;;;6.97;;
16472;SDS011;8347;52.486;13.432;2024-01-16T09:54:59;10.32;;;6.78;;
16472;SDS011;8347;52.486;13.432;2024-01-16T09:57:46;12.02;;;7.38;;
16472;SDS011;8347;52.486;13.432;2024-01-16T10:00:32;10.77;;;6.72;;
16472;SDS011;8347;52.486;13.432;2024-01-16T10:03:19;11.63;;;6.63;;
16472;SDS011;8347;52.486;13.432;2024-01-16T10:06:07;10.75;;;6.93;;
16472;SDS011;8347;52.486;13.432;2024-01-16T10:08:53;15.23;;;7.30;;
16472;SDS011;8347;52.486;13.432;2024-01-16T10:11:40;11.32;;;6.95;;
16472;SDS011;8347;52.486;13.432;2024-01-16T10:14:26;17.08;;;8.95;;
16472;SDS011;8347;52.486;13.432;2024-01-16T10:17:14;16.42;;;8.90;;
16472;SDS011;8347;52.486;13.432;2024-01-16T10:20:02;13.80;;;7.75;;
16472;SDS011;8347;52.486;13.432;2024-01-16T10:22:53;11.13;;;6.75;;
16472;SDS011;8347;52.486;13.432;2024-01-16T10:25:40;11.63;;;7.20;;
16472;SDS011;8347;52.486;13.432;2024-01-16T10:28:27;16.58;;;7.90;;
16472;SDS011;8347;52.486;13.432;2024-01-16T10:31:14;12.70;;;6.97;;
16472;SDS011;8347;52.486;13.432;2024-01-16T10:34:00;10.32;;;6.10;;
16472;SDS011;8347;52.486;13.432;2024-01-16T10:36:49;12.55;;;7.00;;
16472;SDS011;8347;52.486;13.432;2024-01-16T10:39:37;10.55;;;7.10;;
16472;SDS011;8347;52.486;13.432;2024-01-16T10:42:24;15.30;;;7.45;;
16472;SDS011;8347;52.486;13.432;2024-01-16T10:45:15;11.20;;;6.97;;
16472;SDS011;8347;52.486;13.432;2024-01-16T10:48:07;10.02;;;6.70;;
16472;SDS011;8347;52.486;13.432;2024-01-16T10:50:54;11.07;;;5.35;;
16472;SDS011;8347;52.486;13.432;2024-01-16T10:53:44;15.18;;;6.75;;
16472;SDS011;8347;52.486;13.432;2024-01-16T10:56:32;12.00;;;6.85;;
16472;SDS011;8347;52.486;13.432;2024-01-16T10:59:21;11.57;;;6.53;;
16472;SDS011;8347;52.486;13.432;2024-01-16T11:02:11;10.50;;;5.97;;
16472;SDS011;8347;52.486;13.432;2024-01-16T11:05:00;7.18;;;5.15;;
16472;SDS011;8347;52.486;13.432;2024-01-16T11:07:47;9.52;;;4.57;;
16472;SDS011;8347;52.486;13.432;2024-01-16T11:10:34;10.48;;;5.68;;
16472;SDS011;8347;52.486;13.432;2024-01-16T11:13:22;9.80;;;4.80;;
16472;SDS011;8347;52.486;13.432;2024-01-16T11:16:12;9.98;;;5.07;;
16472;SDS011;8347;52.486;13.432;2024-01-16T11:18:59;16.20;;;6.15;;
16472;SDS011;8347;52.486;13.432;2024-01-16T11:21:46;12.45;;;5.32;;
16472;SDS011;8347;52.486;13.432;2024-01-16T11:24:33;6.25;;;3.38;;
16472;SDS011;8347;52.486;13.432;2024-01-16T11:27:23;8.02;;;3.72;;
16472;SDS011;8347;52.486;13.432;2024-01-16T11:30:10;6.65;;;3.00;;
16472;SDS011;8347;52.486;13.432;2024-01-16T11:32:58;9.10;;;3.58;;
16472;SDS011;8347;52.486;13.432;2024-01-16T11:35:45;6.70;;;3.40;;
16472;SDS011;8347;52.486;13.432;2024-01-16T11:38:31;7.47;;;3.90;;
16472;SDS011;8347;52.486;13.432;2024-01-16T11:41:42;9.75;;;4.25;;
16472;SDS011;8347;52.486;13.432;2024-01-16T11:47:27;14.27;;;5.43;;
16472;SDS011;8347;52.486;13.432;2024-01-16T11:50:27;15.77;;;6.75;;
16472;SDS011;8347;52.486;13.432;2024-01-16T11:53:33;11.18;;;6.07;;
16472;SDS011;8347;52.486;13.432;2024-01-16T11:56:33;15.70;;;6.47;;
16472;SDS011;8347;52.486;13.432;2024-01-16T11:59:47;14.48;;;6.68;;
16472;SDS011;8347;52.486;13.432;2024-01-16T12:02:42;18.17;;;6.88;;
16472;SDS011;8347;52.486;13.432;2024-01-16T12:05:33;12.13;;;5.22;;
16472;SDS011;8347;52.486;13.432;2024-01-16T12:08:20;11.10;;;5.22;;
16472;SDS011;8347;52.486;13.432;2024-01-16T12:11:07;10.07;;;5.35;;
16472;SDS011;8347;52.486;13.432;2024-01-16T12:14:01;10.68;;;5.32;;
16472;SDS011;8347;52.486;13.432;2024-01-16T12:16:49;9.25;;;5.30;;
16472;SDS011;8347;52.486;13.432;2024-01-16T12:19:36;10.40;;;4.97;;
16472;SDS011;8347;52.486;13.432;2024-01-16T12:22:25;10.30;;;5.75;;
16472;SDS011;8347;52.486;13.432;2024-01-16T12:25:12;10.20;;;5.78;;
16472;SDS011;8347;52.486;13.432;2024-01-16T12:27:59;11.25;;;5.22;;
16472;SDS011;8347;52.486;13.432;2024-01-16T12:30:50;10.07;;;5.90;;
16472;SDS011;8347;52.486;13.432;2024-01-16T12:33:39;12.63;;;6.03;;
16472;SDS011;8347;52.486;13.432;2024-01-16T12:36:26;15.55;;;5.80;;
16472;SDS011;8347;52.486;13.432;2024-01-16T12:39:12;24.95;;;11.95;;
16472;SDS011;8347;52.486;13.432;2024-01-16T12:41:59;20.52;;;9.75;;
16472;SDS011;8347;52.486;13.432;2024-01-16T12:44:46;13.13;;;6.85;;
16472;SDS011;8347;52.486;13.432;2024-01-16T12:47:33;11.88;;;6.05;;
16472;SDS011;8347;52.486;13.432;2024-01-16T12:50:21;11.85;;;6.80;;
16472;SDS011;8347;52.486;13.432;2024-01-16T12:53:08;14.15;;;7.30;;
16472;SDS011;8347;52.486;13.432;2024-01-16T12:55:59;13.20;;;6.47;;
16472;SDS011;8347;52.486;13.432;2024-01-16T12:58:46;17.55;;;6.60;;
16472;SDS011;8347;52.486;13.432;2024-01-16T13:01:33;13.45;;;5.55;;
16472;SDS011;8347;52.486;13.432;2024-01-16T13:04:19;8.30;;;5.32;;
16472;SDS011;8347;52.486;13.432;2024-01-16T13:07:07;7.30;;;4.85;;
16472;SDS011;8347;52.486;13.432;2024-01-16T13:10:07;11.18;;;4.97;;
16472;SDS011;8347;52.486;13.432;2024-01-16T13:13:10;14.63;;;5.38;;
16472;SDS011;8347;52.486;13.432;2024-01-16T13:15:58;15.35;;;4.80;;
16472;SDS011;8347;52.486;13.432;2024-01-16T13:18:46;12.77;;;4.65;;
16472;SDS011;8347;52.486;13.432;2024-01-16T13:21:32;9.63;;;4.50;;
16472;SDS011;8347;52.486;13.432;2024-01-16T13:24:19;12.57;;;5.25;;
16472;SDS011;8347;52.486;13.432;2024-01-16T13:27:09;15.02;;;4.75;;
16472;SDS011;8347;52.486;13.432;2024-01-16T13:29:56;10.82;;;4.55;;
16472;SDS011;8347;52.486;13.432;2024-01-16T13:32:43;13.45;;;6.07;;
16472;SDS011;8347;52.486;13.432;2024-01-16T13:35:29;8.85;;;4.72;;
16472;SDS011;8347;52.486;13.432;2024-01-16T13:38:16;7.00;;;4.22;;
16472;SDS011;8347;52.486;13.432;2024-01-16T13:41:02;11.23;;;4.68;;
16472;SDS011;8347;52.486;13.432;2024-01-16T13:43:49;10.13;;;5.10;;
16472;SDS011;8347;52.486;13.432;2024-01-16T13:46:35;9.25;;;4.07;;
16472;SDS011;8347;52.486;13.432;2024-01-16T13:49:22;8.23;;;4.40;;
16472;SDS011;8347;52.486;13.432;2024-01-16T13:52:09;10.48;;;5.07;;
16472;SDS011;8347;52.486;13.432;2024-01-16T13:54:55;8.57;;;4.55;;
16472;SDS011;8347;52.486;13.432;2024-01-16T13:57:43;18.33;;;7.22;;
16472;SDS011;8347;52.486;13.432;2024-01-16T14:00:29;12.32;;;5.30;;
16472;SDS011;8347;52.486;13.432;2024-01-16T14:03:16;13.68;;;5.15;;
16472;SDS011;8347;52.486;13.432;2024-01-16T14:06:03;13.55;;;6.13;;
16472;SDS011;8347;52.486;13.432;2024-01-16T14:08:49;16.92;;;5.18;;
16472;SDS011;8347;52.486;13.432;2024-01-16T14:11:36;13.55;;;5.28;;
16472;SDS011;8347;52.486;13.432;2024-01-16T14:14:23;17.75;;;7.13;;
16472;SDS011;8347;52.486;13.432;2024-01-16T14:17:10;11.88;;;3.60;;
16472;SDS011;8347;52.486;13.432;2024-01-16T14:19:57;10.43;;;4.97;;
16472;SDS011;8347;52.486;13.432;2024-01-16T14:22:43;7.63;;;4.93;;
16472;SDS011;8347;52.486;13.432;2024-01-16T14:25:30;13.35;;;4.82;;
16472;SDS011;8347;52.486;13.432;2024-01-16T14:28:17;12.90;;;4.90;;
16472;SDS011;8347;52.486;13.432;2024-01-16T14:31:04;11.82;;;5.07;;
16472;SDS011;8347;52.486;13.432;2024-01-16T14:33:51;12.32;;;4.07;;
16472;SDS011;8347;52.486;13.432;2024-01-16T14:36:41;13.82;;;5.50;;
16472;SDS011;8347;52.486;13.432;2024-01-16T14:39:28;11.35;;;5.75;;
16472;SDS011;8347;52.486;13.432;2024-01-16T14:42:16;11.65;;;5.80;;
16472;SDS011;8347;52.486;13.432;2024-01-16T14:45:03;10.57;;;4.28;;
16472;SDS011;8347;52.486;13.432;2024-01-16T14:47:51;10.75;;;4.47;;
16472;SDS011;8347;52.486;13.432;2024-01-16T14:50:39;11.40;;;4.78;;
16472;SDS011;8347;52.486;13.432;2024-01-16T14:53:25;10.55;;;5.50;;
16472;SDS011;8347;52.486;13.432;2024-01-16T14:56:12;23.65;;;8.35;;
16472;SDS011;8347;52.486;13.432;2024-01-16T14:58:58;23.20;;;8.30;;
16472;SDS011;8347;52.486;13.432;2024-01-16T15:01:45;17.33;;;6.70;;
16472;SDS011;8347;52.486;13.432;2024-01-16T15:04:32;10.38;;;5.40;;
16472;SDS011;8347;52.486;13.432;2024-01-16T15:07:19;10.90;;;4.35;;
16472;SDS011;8347;52.486;13.432;2024-01-16T15:10:06;7.20;;;4.25;;
16472;SDS011;8347;52.486;13.432;2024-01-16T15:12:55;8.32;;;3.90;;
16472;SDS011;8347;52.486;13.432;2024-01-16T15:15:41;9.25;;;5.35;;
16472;SDS011;8347;52.486;13.432;2024-01-16T15:18:29;10.73;;;5.45;;
16472;SDS011;8347;52.486;13.432;2024-01-16T15:21:15;14.30;;;5.18;;
16472;SDS011;8347;52.486;13.432;2024-01-16T15:24:01;16.05;;;6.97;;
16472;SDS011;8347;52.486;13.432;2024-01-16T15:26:47;26.38;;;9.07;;
16472;SDS011;8347;52.486;13.432;2024-01-16T15:29:34;37.03;;;12.75;;
16472;SDS011;8347;52.486;13.432;2024-01-16T15:32:21;24.45;;;9.20;;
16472;SDS011;8347;52.486;13.432;2024-01-16T15:35:08;14.02;;;6.80;;
16472;SDS011;8347;52.486;13.432;2024-01-16T15:37:54;14.55;;;6.70;;
16472;SDS011;8347;52.486;13.432;2024-01-16T15:40:41;14.35;;;5.90;;
16472;SDS011;8347;52.486;13.432;2024-01-16T15:43:28;11.05;;;6.10;;
16472;SDS011;8347;52.486;13.432;2024-01-16T15:46:15;18.65;;;6.20;;
16472;SDS011;8347;52.486;13.432;2024-01-16T15:49:02;20.58;;;7.57;;
16472;SDS011;8347;52.486;13.432;2024-01-16T15:51:49;26.15;;;10.82;;
16472;SDS011;8347;52.486;13.432;2024-01-16T15:54:36;16.05;;;9.30;;
16472;SDS011;8347;52.486;13.432;2024-01-16T15:57:23;14.98;;;6.88;;
16472;SDS011;8347;52.486;13.432;2024-01-16T16:00:10;15.27;;;7.00;;
16472;SDS011;8347;52.486;13.432;2024-01-16T16:02:56;16.25;;;7.38;;
16472;SDS011;8347;52.486;13.432;2024-01-16T16:05:45;17.02;;;8.32;;
16472;SDS011;8347;52.486;13.432;2024-01-16T16:08:31;18.48;;;8.13;;
16472;SDS011;8347;52.486;13.432;2024-01-16T16:11:18;18.58;;;8.95;;
16472;SDS011;8347;52.486;13.432;2024-01-16T16:14:05;46.20;;;16.00;;
16472;SDS011;8347;52.486;13.432;2024-01-16T16:16:52;32.95;;;14.05;;
16472;SDS011;8347;52.486;13.432;2024-01-16T16:19:39;24.35;;;11.55;;
16472;SDS011;8347;52.486;13.432;2024-01-16T16:22:27;21.33;;;9.75;;
16472;SDS011;8347;52.486;13.432;2024-01-16T16:25:13;12.43;;;7.07;;
16472;SDS011;8347;52.486;13.432;2024-01-16T16:28:00;16.15;;;7.00;;
16472;SDS011;8347;52.486;13.432;2024-01-16T16:30:46;21.98;;;10.48;;
16472;SDS011;8347;52.486;13.432;2024-01-16T16:33:33;27.65;;;11.23;;
16472;SDS011;8347;52.486;13.432;2024-01-16T16:36:19;31.75;;;13.77;;
16472;SDS011;8347;52.486;13.432;2024-01-16T16:39:05;35.63;;;12.68;;
16472;SDS011;8347;52.486;13.432;2024-01-16T16:41:52;24.02;;;11.38;;
16472;SDS011;8347;52.486;13.432;2024-01-16T16:44:39;19.85;;;8.45;;